Furenas — OZ2085 — position and weather

sailwx.info

Track history (hours):
 
Tides and Currents Weather Stations Pressure Air Temp Water Temp Dewpoint Dewpoint Depression Visibility Wind Speed Wind Dir Waves Ship Positions

Furenas

Last reported at 2014-Aug-01 23:31 UTC. Time now 2014-Aug-02 00:33 UTC.
Position N 55°42' W 005°01'.

Length 137 m; draft 8.2 m.

Type: Tanker. MMSI: 231734000.

Date/timePositionNaut miles runAvg speedWind from/ knotsBaromVisibWave heightAir tempDewpointWater temp
2014-Aug-01 23:31N 55°42' W 005°01'6 6.4
2014-Aug-01 22:30N 55°36' W 005°07'1 0.3
2014-Aug-01 19:04N 55°35' W 005°07'0 0.0
2014-Aug-01 16:25N 55°35' W 005°07'0 0.0
2014-Aug-01 12:04N 55°35' W 005°08'0 0.1
2014-Aug-01 11:32N 55°35' W 005°07'2 2.0
2014-Aug-01 10:33N 55°34' W 005°04'2510.0
2014-Aug-01 08:05N 55°14' W 005°29'612.0
2014-Aug-01 07:33N 55°14' W 005°40'1110.8
2014-Aug-01 06:33N 55°15' W 005°59'9 9.4
2014-Aug-01 05:33N 55°21' W 006°10'1010.5
2014-Aug-01 04:33N 55°26' W 006°26'1110.7
2014-Aug-01 03:33N 55°33' W 006°41'1111.2
2014-Aug-01 02:33N 55°40' W 006°56'1212.0
2014-Aug-01 01:32N 55°52' W 007°03'19110.6
2014-Jul-31 07:33N 58°42' W 004°22'1212.0
2014-Jul-31 06:33N 58°43' W 003°59'1312.6
2014-Jul-31 05:33N 58°43' W 003°34'1514.9
2014-Jul-31 04:33N 58°43' W 003°06'36812.3
2014-Jul-29 22:32N 57°52' E 008°28'1412.1
2014-Jul-29 21:23N 57°55' E 008°53'1212.0
2014-Jul-29 20:24N 57°58' E 009°14'69 2.7
2014-Jul-28 19:07N 58°18' E 011°19'8 3.8
2014-Jul-28 17:08N 58°12' E 011°11'0 0.0
2014-Jul-28 16:14N 58°12' E 011°11'0 0.0
2014-Jul-28 13:32N 58°12' E 011°11'0 0.0
2014-Jul-28 11:29N 58°12' E 011°11'0 0.0
2014-Jul-28 10:29N 58°12' E 011°11'0 0.0
2014-Jul-28 09:17N 58°12' E 011°11'0 0.0
2014-Jul-28 08:26N 58°12' E 011°11'0 0.0
2014-Jul-28 07:32N 58°12' E 011°11'0 0.0
2014-Jul-28 06:23N 58°12' E 011°11'0 0.0
2014-Jul-28 05:29N 58°12' E 011°11'0 0.0
2014-Jul-28 04:20N 58°12' E 011°11'0 0.0
2014-Jul-28 03:11N 58°12' E 011°11'0 0.0
2014-Jul-28 02:23N 58°12' E 011°11'0 0.0
2014-Jul-28 01:32N 58°12' E 011°11'0 0.0
2014-Jul-27 23:17N 58°12' E 011°11'0 0.0
2014-Jul-27 21:32N 58°12' E 011°11'0 0.0
2014-Jul-27 20:28N 58°12' E 011°11'0 0.0
2014-Jul-27 19:22N 58°12' E 011°11'0 0.0
2014-Jul-27 18:31N 58°12' E 011°10'0 0.0
2014-Jul-27 17:04N 58°12' E 011°11'0 0.0
2014-Jul-27 16:07N 58°12' E 011°11'0 0.0
2014-Jul-27 15:25N 58°12' E 011°11'0 0.0
2014-Jul-27 14:10N 58°12' E 011°11'0 0.0
2014-Jul-27 13:22N 58°12' E 011°11'0 0.0
2014-Jul-27 12:19N 58°12' E 011°11'0 0.0
2014-Jul-27 11:13N 58°12' E 011°11'0 0.0
2014-Jul-27 10:31N 58°12' E 011°11'0 0.0
2014-Jul-27 09:22N 58°12' E 011°11'0 0.0
2014-Jul-27 06:22N 58°12' E 011°10'0 0.2
2014-Jul-27 05:33N 58°12' E 011°10'1010.5
2014-Jul-27 04:33N 58°01' E 011°16'1211.9
2014-Jul-27 03:33N 57°50' E 011°19'1211.7
2014-Jul-27 02:33N 57°39' E 011°27'1010.2
2014-Jul-27 01:33N 57°39' E 011°46'4 4.2
2014-Jul-27 00:33N 57°41' E 011°53'0 0.0
2014-Jul-26 23:33N 57°41' E 011°53'0 0.0
2014-Jul-25 14:33N 57°41' E 011°53'0 0.0
2014-Jul-25 13:33N 57°41' E 011°53'2 1.9
2014-Jul-25 12:34N 57°41' E 011°49'7 6.5
2014-Jul-25 11:32N 57°36' E 011°41'0 0.0
2014-Jul-25 10:32N 57°36' E 011°41'0 0.1
2014-Jul-25 09:32N 57°36' E 011°41'0 0.1
2014-Jul-25 08:32N 57°36' E 011°41'3 2.7
2014-Jul-25 07:34N 57°33' E 011°39'1 0.6
2014-Jul-25 06:33N 57°33' E 011°39'0 0.1
2014-Jul-25 05:33N 57°33' E 011°39'0 0.0
2014-Jul-25 04:33N 57°33' E 011°39'0 0.1
2014-Jul-25 03:34N 57°33' E 011°39'9 9.4
2014-Jul-25 02:33N 57°23' E 011°40'1212.2
2014-Jul-25 01:34N 57°11' E 011°40'1212.0
2014-Jul-25 00:34N 56°60' E 011°45'1212.1
2014-Jul-24 23:34N 56°48' E 011°52'1111.1
2014-Jul-24 22:33N 56°38' E 011°46'1111.4
2014-Jul-24 21:33N 56°28' E 011°35'1211.5
2014-Jul-24 20:34N 56°18' E 011°25'1111.3
2014-Jul-24 19:33N 56°08' E 011°13'1111.4
2014-Jul-24 18:34N 55°59' E 011°02'1111.5
2014-Jul-24 17:34N 55°50' E 010°50'13 0.7
2014-Jul-23 23:26N 55°40' E 011°06'4 4.4
2014-Jul-23 22:33N 55°41' E 010°59'9 9.0
2014-Jul-23 21:33N 55°48' E 010°48'1110.9
2014-Jul-23 20:32N 55°57' E 010°59'1111.1
2014-Jul-23 19:33N 56°06' E 011°09'1111.0
2014-Jul-23 18:33N 56°15' E 011°21'1111.1
2014-Jul-23 17:33N 56°25' E 011°31'1311.1
2014-Jul-23 16:25N 56°36' E 011°42'1011.2
2014-Jul-23 15:30N 56°45' E 011°51'1111.2
2014-Jul-23 14:33N 56°55' E 011°46'1211.7
2014-Jul-23 13:33N 57°06' E 011°39'1211.8
2014-Jul-23 12:33N 57°17' E 011°31'1211.8
2014-Jul-23 11:33N 57°28' E 011°23'1111.3
2014-Jul-23 10:33N 57°35' E 011°07'1211.5
2014-Jul-23 09:33N 57°44' E 010°52'1010.3
2014-Jul-23 08:33N 57°48' E 010°35'1212.2
2014-Jul-23 07:33N 57°44' E 010°13'1211.7
2014-Jul-23 06:33N 57°41' E 009°52'1211.6
2014-Jul-23 05:33N 57°34' E 009°34'1211.6
2014-Jul-23 04:33N 57°28' E 009°16'  
Track history (hours):
 
Tides and Currents Weather Stations Pressure Air Temp Water Temp Dewpoint Dewpoint Depression Visibility Wind Speed Wind Dir Waves Ship Positions

Furenas

Last reported at 2014-Aug-01 23:31 UTC. Time now 2014-Aug-02 00:33 UTC.
Position N 55°42' W 005°01'.

Length 137 m; draft 8.2 m.

Type: Tanker. MMSI: 231734000.

Date/timePositionNaut miles runAvg speedWind from/ knotsBaromVisibWave heightAir tempDewpointWater temp
2014-Aug-01 23:31N 55°42' W 005°01'6 6.4
2014-Aug-01 22:30N 55°36' W 005°07'1 0.3
2014-Aug-01 19:04N 55°35' W 005°07'0 0.0
2014-Aug-01 16:25N 55°35' W 005°07'0 0.0
2014-Aug-01 12:04N 55°35' W 005°08'0 0.1
2014-Aug-01 11:32N 55°35' W 005°07'2 2.0
2014-Aug-01 10:33N 55°34' W 005°04'2510.0
2014-Aug-01 08:05N 55°14' W 005°29'612.0
2014-Aug-01 07:33N 55°14' W 005°40'1110.8
2014-Aug-01 06:33N 55°15' W 005°59'9 9.4
2014-Aug-01 05:33N 55°21' W 006°10'1010.5
2014-Aug-01 04:33N 55°26' W 006°26'1110.7
2014-Aug-01 03:33N 55°33' W 006°41'1111.2
2014-Aug-01 02:33N 55°40' W 006°56'1212.0
2014-Aug-01 01:32N 55°52' W 007°03'19110.6
2014-Jul-31 07:33N 58°42' W 004°22'1212.0
2014-Jul-31 06:33N 58°43' W 003°59'1312.6
2014-Jul-31 05:33N 58°43' W 003°34'1514.9
2014-Jul-31 04:33N 58°43' W 003°06'36812.3
2014-Jul-29 22:32N 57°52' E 008°28'1412.1
2014-Jul-29 21:23N 57°55' E 008°53'1212.0
2014-Jul-29 20:24N 57°58' E 009°14'69 2.7
2014-Jul-28 19:07N 58°18' E 011°19'8 3.8
2014-Jul-28 17:08N 58°12' E 011°11'0 0.0
2014-Jul-28 16:14N 58°12' E 011°11'0 0.0
2014-Jul-28 13:32N 58°12' E 011°11'0 0.0
2014-Jul-28 11:29N 58°12' E 011°11'0 0.0
2014-Jul-28 10:29N 58°12' E 011°11'0 0.0
2014-Jul-28 09:17N 58°12' E 011°11'0 0.0
2014-Jul-28 08:26N 58°12' E 011°11'0 0.0
2014-Jul-28 07:32N 58°12' E 011°11'0 0.0
2014-Jul-28 06:23N 58°12' E 011°11'0 0.0
2014-Jul-28 05:29N 58°12' E 011°11'0 0.0
2014-Jul-28 04:20N 58°12' E 011°11'0 0.0
2014-Jul-28 03:11N 58°12' E 011°11'0 0.0
2014-Jul-28 02:23N 58°12' E 011°11'0 0.0
2014-Jul-28 01:32N 58°12' E 011°11'0 0.0
2014-Jul-27 23:17N 58°12' E 011°11'0 0.0
2014-Jul-27 21:32N 58°12' E 011°11'0 0.0
2014-Jul-27 20:28N 58°12' E 011°11'0 0.0
2014-Jul-27 19:22N 58°12' E 011°11'0 0.0
2014-Jul-27 18:31N 58°12' E 011°10'0 0.0
2014-Jul-27 17:04N 58°12' E 011°11'0 0.0
2014-Jul-27 16:07N 58°12' E 011°11'0 0.0
2014-Jul-27 15:25N 58°12' E 011°11'0 0.0
2014-Jul-27 14:10N 58°12' E 011°11'0 0.0
2014-Jul-27 13:22N 58°12' E 011°11'0 0.0
2014-Jul-27 12:19N 58°12' E 011°11'0 0.0
2014-Jul-27 11:13N 58°12' E 011°11'0 0.0
2014-Jul-27 10:31N 58°12' E 011°11'0 0.0
2014-Jul-27 09:22N 58°12' E 011°11'0 0.0
2014-Jul-27 06:22N 58°12' E 011°10'0 0.2
2014-Jul-27 05:33N 58°12' E 011°10'1010.5
2014-Jul-27 04:33N 58°01' E 011°16'1211.9
2014-Jul-27 03:33N 57°50' E 011°19'1211.7
2014-Jul-27 02:33N 57°39' E 011°27'1010.2
2014-Jul-27 01:33N 57°39' E 011°46'4 4.2
2014-Jul-27 00:33N 57°41' E 011°53'0 0.0
2014-Jul-26 23:33N 57°41' E 011°53'0 0.0
2014-Jul-25 14:33N 57°41' E 011°53'0 0.0
2014-Jul-25 13:33N 57°41' E 011°53'2 1.9
2014-Jul-25 12:34N 57°41' E 011°49'7 6.5
2014-Jul-25 11:32N 57°36' E 011°41'0 0.0
2014-Jul-25 10:32N 57°36' E 011°41'0 0.1
2014-Jul-25 09:32N 57°36' E 011°41'0 0.1
2014-Jul-25 08:32N 57°36' E 011°41'3 2.7
2014-Jul-25 07:34N 57°33' E 011°39'1 0.6
2014-Jul-25 06:33N 57°33' E 011°39'0 0.1
2014-Jul-25 05:33N 57°33' E 011°39'0 0.0
2014-Jul-25 04:33N 57°33' E 011°39'0 0.1
2014-Jul-25 03:34N 57°33' E 011°39'9 9.4
2014-Jul-25 02:33N 57°23' E 011°40'1212.2
2014-Jul-25 01:34N 57°11' E 011°40'1212.0
2014-Jul-25 00:34N 56°60' E 011°45'1212.1
2014-Jul-24 23:34N 56°48' E 011°52'1111.1
2014-Jul-24 22:33N 56°38' E 011°46'1111.4
2014-Jul-24 21:33N 56°28' E 011°35'1211.5
2014-Jul-24 20:34N 56°18' E 011°25'1111.3
2014-Jul-24 19:33N 56°08' E 011°13'1111.4
2014-Jul-24 18:34N 55°59' E 011°02'1111.5
2014-Jul-24 17:34N 55°50' E 010°50'13 0.7
2014-Jul-23 23:26N 55°40' E 011°06'4 4.4
2014-Jul-23 22:33N 55°41' E 010°59'9 9.0
2014-Jul-23 21:33N 55°48' E 010°48'1110.9
2014-Jul-23 20:32N 55°57' E 010°59'1111.1
2014-Jul-23 19:33N 56°06' E 011°09'1111.0
2014-Jul-23 18:33N 56°15' E 011°21'1111.1
2014-Jul-23 17:33N 56°25' E 011°31'1311.1
2014-Jul-23 16:25N 56°36' E 011°42'1011.2
2014-Jul-23 15:30N 56°45' E 011°51'1111.2
2014-Jul-23 14:33N 56°55' E 011°46'1211.7
2014-Jul-23 13:33N 57°06' E 011°39'1211.8
2014-Jul-23 12:33N 57°17' E 011°31'1211.8
2014-Jul-23 11:33N 57°28' E 011°23'1111.3
2014-Jul-23 10:33N 57°35' E 011°07'1211.5
2014-Jul-23 09:33N 57°44' E 010°52'1010.3
2014-Jul-23 08:33N 57°48' E 010°35'1212.2
2014-Jul-23 07:33N 57°44' E 010°13'1211.7
2014-Jul-23 06:33N 57°41' E 009°52'1211.6
2014-Jul-23 05:33N 57°34' E 009°34'1211.6
2014-Jul-23 04:33N 57°28' E 009°16'  

Dump ship's entire track history